Terminal Aerodrome Forecast
Issued by NWS Charleston, WV

Home | Current Version | Previous Version | Text Only | Print | Product List | Glossary On
Versions: 1 2 3 4 5 6 7 8 9 10 11 12 13 14 15 16 17 18 19 20 21 22 23 24
212
FTUS41 KRLX 220909 AAB
TAFEKN
TAF AMD
KEKN 220909Z 2209/2306 00000KT 5SM BR BKN100
     FM221600 19004KT 4SM TSRA BKN025CB
      TEMPO 2216/2218 2SM +TSRA OVC015CB
     FM221800 22007KT P6SM VCTS SCT050CB BKN100=

USA.gov is the U.S. government's official web portal to all federal, state and local government web resources and services.